createdAt,value
2018-12-05T00:01:26.064Z,7.20
2018-12-05T00:03:54.331Z,7.20
2018-12-05T00:06:22.540Z,7.30
2018-12-05T00:08:51.491Z,7.30
2018-12-05T00:11:20.194Z,7.30
2018-12-05T00:13:48.444Z,7.30
2018-12-05T00:16:16.816Z,7.20
2018-12-05T00:18:45.087Z,7.20
2018-12-05T00:21:13.347Z,7.30
2018-12-05T00:23:41.709Z,7.20
2018-12-05T00:26:09.989Z,7.20
2018-12-05T00:28:38.295Z,7.10
2018-12-05T00:31:06.497Z,7.10
2018-12-05T00:33:34.695Z,7.00
2018-12-05T00:36:03.051Z,7.10
2018-12-05T00:38:31.275Z,7.00
2018-12-05T00:40:59.597Z,7.00
2018-12-05T00:43:27.828Z,6.90
2018-12-05T00:45:56.063Z,6.80
2018-12-05T00:48:24.499Z,6.80
2018-12-05T00:50:52.763Z,6.80
2018-12-05T00:53:20.999Z,6.80
2018-12-05T00:55:49.228Z,6.80
2018-12-05T00:58:17.518Z,6.80
2018-12-05T01:00:45.743Z,6.90
2018-12-05T01:03:13.938Z,6.80
2018-12-05T01:05:42.157Z,6.90
2018-12-05T01:08:10.681Z,6.90
2018-12-05T01:10:38.985Z,6.90
2018-12-05T01:13:07.199Z,6.90
2018-12-05T01:15:35.466Z,6.90
2018-12-05T01:18:03.807Z,6.90
2018-12-05T01:20:32.011Z,6.90
2018-12-05T01:23:00.311Z,6.90
2018-12-05T01:25:28.692Z,6.90
2018-12-05T01:27:56.945Z,6.90
2018-12-05T01:30:25.241Z,7.00
2018-12-05T01:32:53.636Z,7.00
2018-12-05T01:35:21.825Z,6.90
2018-12-05T01:37:50.295Z,6.90
2018-12-05T01:40:18.621Z,6.90
2018-12-05T01:42:46.904Z,6.90
2018-12-05T01:45:15.120Z,6.90
2018-12-05T01:47:43.323Z,6.90
2018-12-05T01:50:11.539Z,6.90
2018-12-05T01:52:39.842Z,6.90
2018-12-05T01:55:08.353Z,6.90
2018-12-05T01:57:36.552Z,6.90
2018-12-05T02:00:05.648Z,6.90
2018-12-05T02:02:34.303Z,6.90
2018-12-05T02:05:02.571Z,6.90
2018-12-05T02:07:30.915Z,6.90
2018-12-05T02:09:59.140Z,6.80
2018-12-05T02:12:27.350Z,6.80
2018-12-05T02:14:55.590Z,6.80
2018-12-05T02:17:24.073Z,6.80
2018-12-05T02:19:52.359Z,6.70
2018-12-05T02:22:20.599Z,6.70
2018-12-05T02:24:48.811Z,6.70
2018-12-05T02:27:17.211Z,6.70
2018-12-05T02:29:51.049Z,6.70
2018-12-05T02:32:19.408Z,6.70
2018-12-05T02:34:47.607Z,6.70
2018-12-05T02:37:15.999Z,6.70
2018-12-05T02:39:45.331Z,6.70
2018-12-05T02:42:13.569Z,6.70
2018-12-05T02:44:41.863Z,6.60
2018-12-05T02:47:10.207Z,6.60
2018-12-05T02:49:38.590Z,6.70
2018-12-05T02:52:06.807Z,6.60
2018-12-05T02:54:35.019Z,6.60
2018-12-05T02:57:03.554Z,6.60
2018-12-05T02:59:31.768Z,6.60
2018-12-05T03:02:00.270Z,6.60
2018-12-05T03:04:28.496Z,6.50
2018-12-05T03:06:56.715Z,6.50
2018-12-05T03:09:24.907Z,6.50
2018-12-05T03:11:53.210Z,6.50
2018-12-05T03:14:21.430Z,6.50
2018-12-05T03:16:49.723Z,6.50
2018-12-05T03:19:18.000Z,6.60
2018-12-05T03:21:46.483Z,6.70
2018-12-05T03:24:14.780Z,6.60
2018-12-05T03:26:42.987Z,6.60
2018-12-05T03:29:11.245Z,6.60
2018-12-05T03:31:39.538Z,6.70
2018-12-05T03:34:07.896Z,6.70
2018-12-05T03:36:36.215Z,6.60
2018-12-05T03:39:08.331Z,6.70
2018-12-05T03:41:37.158Z,6.60
2018-12-05T03:44:05.667Z,6.60
2018-12-05T03:46:33.982Z,6.60
2018-12-05T03:49:02.201Z,6.60
2018-12-05T03:51:30.501Z,6.60
2018-12-05T03:53:58.732Z,6.60
2018-12-05T03:56:27.016Z,6.60
2018-12-05T03:58:55.334Z,6.60
2018-12-05T04:01:23.603Z,6.50
2018-12-05T04:03:51.823Z,6.60
2018-12-05T04:06:20.397Z,6.60
2018-12-05T04:08:48.609Z,6.50
2018-12-05T04:11:16.900Z,6.60
2018-12-05T04:13:45.290Z,6.50
2018-12-05T04:16:13.568Z,6.50
2018-12-05T04:18:41.805Z,6.50
2018-12-05T04:21:10.065Z,6.50
2018-12-05T04:23:38.287Z,6.50
2018-12-05T04:26:06.532Z,6.50
2018-12-05T04:28:34.813Z,6.50
2018-12-05T04:31:03.035Z,6.50
2018-12-05T04:33:31.231Z,6.50
2018-12-05T04:35:59.447Z,6.50
2018-12-05T04:38:27.735Z,6.50
2018-12-05T04:40:55.951Z,6.50
2018-12-05T04:43:24.272Z,6.60
2018-12-05T04:45:52.527Z,6.50
2018-12-05T04:48:20.732Z,6.50
2018-12-05T04:50:49.022Z,6.60
2018-12-05T04:53:17.343Z,6.50
2018-12-05T04:55:45.571Z,6.50
2018-12-05T04:58:13.756Z,6.50
2018-12-05T05:00:42.198Z,6.50
2018-12-05T05:03:10.421Z,6.60
2018-12-05T05:05:38.619Z,6.60
2018-12-05T05:08:06.847Z,6.60
2018-12-05T05:10:35.269Z,6.60
2018-12-05T05:13:03.809Z,6.60
2018-12-05T05:18:07.837Z,6.70
2018-12-05T05:20:36.205Z,6.70
2018-12-05T05:23:04.522Z,6.70
2018-12-05T05:25:32.803Z,6.70
2018-12-05T05:28:01.034Z,6.70
2018-12-05T05:30:29.372Z,6.70
2018-12-05T05:32:57.597Z,6.60
2018-12-05T05:35:25.823Z,6.60
2018-12-05T05:37:54.293Z,6.60
2018-12-05T05:40:22.491Z,6.60
2018-12-05T05:42:50.728Z,6.60
2018-12-05T05:45:18.953Z,6.60
2018-12-05T05:47:47.266Z,6.70
2018-12-05T05:50:15.795Z,6.60
2018-12-05T05:52:44.035Z,6.60
2018-12-05T05:55:12.414Z,6.60
2018-12-05T05:57:41.323Z,6.70
2018-12-05T06:00:09.969Z,6.60
2018-12-05T06:02:38.200Z,6.60
2018-12-05T06:05:06.862Z,6.60
2018-12-05T06:07:35.095Z,6.60
2018-12-05T06:10:03.523Z,6.60
2018-12-05T06:12:31.775Z,6.50
2018-12-05T06:14:59.999Z,6.50
2018-12-05T06:17:28.539Z,6.50
2018-12-05T06:19:56.819Z,6.50
2018-12-05T06:22:25.011Z,6.50
2018-12-05T06:24:53.319Z,6.50
2018-12-05T06:27:22.047Z,6.60
2018-12-05T06:29:50.283Z,6.60
2018-12-05T06:32:18.711Z,6.60
2018-12-05T06:34:46.983Z,6.60
2018-12-05T06:37:15.281Z,6.60
2018-12-05T06:39:43.503Z,6.60
2018-12-05T06:42:11.887Z,6.70
2018-12-05T06:44:40.092Z,6.70
2018-12-05T06:47:08.333Z,6.70
2018-12-05T06:49:36.607Z,6.70
2018-12-05T06:52:04.808Z,6.70
2018-12-05T06:54:33.168Z,6.70
2018-12-05T06:57:01.443Z,6.70
2018-12-05T06:59:29.725Z,6.70
2018-12-05T07:01:58.147Z,6.80
2018-12-05T07:04:26.371Z,6.80
2018-12-05T07:06:54.600Z,6.80
2018-12-05T07:09:22.984Z,6.80
2018-12-05T07:11:51.380Z,6.80
2018-12-05T07:14:19.647Z,6.80
2018-12-05T07:16:47.960Z,6.80
2018-12-05T07:19:16.159Z,6.80
2018-12-05T07:21:44.622Z,6.80
2018-12-05T07:24:13.140Z,6.80
2018-12-05T07:26:41.382Z,6.90
2018-12-05T07:29:09.607Z,6.90
2018-12-05T07:31:37.839Z,6.90
2018-12-05T07:34:06.052Z,6.90
2018-12-05T07:36:34.413Z,6.90
2018-12-05T07:39:04.513Z,7.00
2018-12-05T07:41:32.710Z,6.90
2018-12-05T07:44:00.975Z,7.00
2018-12-05T07:46:29.917Z,7.00
2018-12-05T07:48:58.136Z,7.00
2018-12-05T07:51:26.543Z,7.00
2018-12-05T07:53:54.876Z,7.00
2018-12-05T07:56:23.296Z,7.00
2018-12-05T07:58:51.537Z,7.00
2018-12-05T08:01:19.834Z,7.00
2018-12-05T08:03:48.139Z,7.00
2018-12-05T08:06:16.371Z,7.00
2018-12-05T08:08:44.879Z,7.10
2018-12-05T08:11:13.171Z,7.00
2018-12-05T08:13:41.404Z,7.00
2018-12-05T08:16:09.660Z,7.00
2018-12-05T08:18:37.933Z,7.00
2018-12-05T08:21:06.175Z,7.00
2018-12-05T08:23:34.400Z,7.00
2018-12-05T08:26:02.632Z,7.00
2018-12-05T08:28:30.861Z,7.00
2018-12-05T08:30:59.511Z,7.00
2018-12-05T08:33:27.728Z,7.00
2018-12-05T08:35:59.075Z,7.10
2018-12-05T08:38:27.318Z,7.20
2018-12-05T08:40:55.539Z,7.30
2018-12-05T08:43:23.992Z,7.40
2018-12-05T08:45:52.370Z,7.40
2018-12-05T08:48:20.681Z,7.50
2018-12-05T08:50:48.998Z,7.60
2018-12-05T08:53:17.402Z,7.70
2018-12-05T08:55:45.737Z,7.70
2018-12-05T08:58:14.047Z,7.80
2018-12-05T09:00:42.396Z,7.80
2018-12-05T09:03:10.599Z,7.90
2018-12-05T09:05:38.819Z,7.90
2018-12-05T09:08:07.043Z,7.90
2018-12-05T09:10:35.256Z,7.90
2018-12-05T09:13:03.579Z,7.90
2018-12-05T09:15:32.302Z,8.00
2018-12-05T09:18:00.639Z,8.00
2018-12-05T09:20:28.944Z,8.00
2018-12-05T09:22:57.139Z,8.00
2018-12-05T09:25:25.510Z,8.00
2018-12-05T09:27:53.701Z,8.00
2018-12-05T09:30:21.911Z,7.90
2018-12-05T09:32:50.099Z,7.90
2018-12-05T09:35:18.436Z,8.00
2018-12-05T09:37:46.827Z,8.00
2018-12-05T09:40:15.099Z,8.10
2018-12-05T09:42:43.551Z,8.20
2018-12-05T09:45:13.835Z,8.20
2018-12-05T09:47:42.043Z,8.30
2018-12-05T09:50:10.468Z,8.30
2018-12-05T09:52:38.703Z,8.40
2018-12-05T09:55:07.185Z,8.40
2018-12-05T09:57:35.375Z,8.40
2018-12-05T10:00:04.656Z,8.40
2018-12-05T10:02:32.943Z,8.40
2018-12-05T10:05:01.178Z,8.40
2018-12-05T10:07:29.492Z,8.40
2018-12-05T10:09:57.856Z,8.40
2018-12-05T10:12:26.076Z,8.40
2018-12-05T10:14:54.315Z,8.50
2018-12-05T10:17:22.547Z,8.60
2018-12-05T10:19:50.871Z,8.60
2018-12-05T10:23:48.326Z,8.70
2018-12-05T10:26:16.668Z,8.90
2018-12-05T10:28:44.895Z,9.10
2018-12-05T10:31:13.535Z,9.10
2018-12-05T10:33:42.317Z,9.10
2018-12-05T10:36:11.327Z,9.10
2018-12-05T10:38:39.579Z,9.20
2018-12-05T10:41:07.852Z,9.20
2018-12-05T10:43:36.291Z,9.20
2018-12-05T10:46:04.707Z,9.20
2018-12-05T10:48:32.948Z,9.20
2018-12-05T10:51:01.445Z,9.30
2018-12-05T10:53:29.749Z,9.30
2018-12-05T10:55:58.071Z,9.30
2018-12-05T10:58:26.356Z,9.30
2018-12-05T11:01:00.094Z,9.40
2018-12-05T11:03:34.796Z,9.40
2018-12-05T11:06:09.593Z,9.50
2018-12-05T11:08:43.247Z,9.40
2018-12-05T11:11:16.956Z,9.40
2018-12-05T11:15:54.228Z,9.30
2018-12-05T11:18:27.888Z,9.30
2018-12-05T11:21:01.471Z,9.30
2018-12-05T11:23:35.156Z,9.30
2018-12-05T11:26:07.733Z,9.40
2018-12-05T11:28:36.195Z,9.40
2018-12-05T11:31:04.475Z,9.40
2018-12-05T11:33:33.027Z,9.50
2018-12-05T11:36:01.391Z,9.40
2018-12-05T11:38:29.624Z,9.40
2018-12-05T11:40:57.995Z,9.40
2018-12-05T11:43:26.368Z,9.40
2018-12-05T11:45:54.918Z,9.40
2018-12-05T11:48:23.184Z,9.30
2018-12-05T11:50:51.492Z,9.30
2018-12-05T11:53:19.804Z,9.20
2018-12-05T11:55:49.031Z,9.20
2018-12-05T11:58:17.399Z,9.10
2018-12-05T12:00:45.716Z,9.10
2018-12-05T12:03:13.939Z,9.10
2018-12-05T12:05:42.323Z,9.10
2018-12-05T12:08:10.904Z,9.10
2018-12-05T12:10:40.176Z,9.10
2018-12-05T12:13:09.445Z,9.10
2018-12-05T12:15:37.770Z,9.10
2018-12-05T12:18:06.294Z,9.10
2018-12-05T12:20:34.788Z,9.10
2018-12-05T12:23:03.193Z,9.10
2018-12-05T12:25:31.410Z,9.10
2018-12-05T12:27:59.735Z,9.00
2018-12-05T12:30:28.444Z,9.00
2018-12-05T12:32:56.666Z,9.00
2018-12-05T12:35:24.896Z,9.00
2018-12-05T12:37:53.201Z,9.00
2018-12-05T12:40:22.090Z,8.90
2018-12-05T12:42:51.048Z,8.90
2018-12-05T12:45:20.082Z,8.90
2018-12-05T12:47:48.696Z,8.90
2018-12-05T12:50:17.083Z,8.90
2018-12-05T12:52:45.586Z,8.90
2018-12-05T12:55:13.910Z,8.90
2018-12-05T12:57:42.240Z,8.90
2018-12-05T13:00:11.031Z,8.90
2018-12-05T13:02:39.413Z,8.90
2018-12-05T13:05:07.794Z,8.90
2018-12-05T13:07:36.470Z,8.90
2018-12-05T13:10:05.334Z,8.90
2018-12-05T13:12:34.594Z,8.80
2018-12-05T13:15:03.304Z,8.80
2018-12-05T13:17:31.531Z,8.70
2018-12-05T13:20:00.777Z,8.70
2018-12-05T13:22:29.098Z,8.80
2018-12-05T13:24:57.359Z,8.70
2018-12-05T13:27:25.580Z,8.70
2018-12-05T13:29:53.939Z,8.70
2018-12-05T13:35:08.659Z,8.70
2018-12-05T13:37:36.973Z,8.80
2018-12-05T13:40:06.050Z,8.80
2018-12-05T13:42:34.458Z,8.70
2018-12-05T13:45:03.216Z,8.70
2018-12-05T13:47:32.452Z,8.70
2018-12-05T13:50:00.906Z,8.70
2018-12-05T13:52:29.144Z,8.70
2018-12-05T13:54:57.415Z,8.70
2018-12-05T13:57:25.962Z,8.70
2018-12-05T13:59:54.754Z,8.70
2018-12-05T14:02:23.087Z,8.70
2018-12-05T14:04:51.951Z,8.70
2018-12-05T14:07:20.398Z,8.70
2018-12-05T14:09:48.590Z,8.60
2018-12-05T14:12:22.188Z,8.60
2018-12-05T14:14:50.576Z,8.50
2018-12-05T14:17:18.853Z,8.50
2018-12-05T14:19:47.424Z,8.40
2018-12-05T14:22:15.740Z,8.40
2018-12-05T14:24:44.189Z,8.40
2018-12-05T14:27:12.461Z,8.30
2018-12-05T14:29:40.995Z,8.30
2018-12-05T14:32:09.257Z,8.20
2018-12-05T14:34:37.569Z,8.10
2018-12-05T14:37:05.903Z,8.10
2018-12-05T14:39:34.461Z,8.20
2018-12-05T14:42:03.028Z,8.20
2018-12-05T14:44:31.737Z,8.20
2018-12-05T14:47:00.097Z,8.30
2018-12-05T14:49:29.055Z,8.40
2018-12-05T14:51:57.300Z,8.40
2018-12-05T14:54:25.843Z,8.40
2018-12-05T14:56:54.404Z,8.40
2018-12-05T14:59:22.655Z,8.50
2018-12-05T15:01:51.084Z,8.50
2018-12-05T15:04:19.377Z,8.50
2018-12-05T15:06:47.947Z,8.40
2018-12-05T15:09:16.486Z,8.40
2018-12-05T15:11:44.762Z,8.30
2018-12-05T15:14:13.291Z,8.30
2018-12-05T15:16:41.528Z,8.20
2018-12-05T15:19:09.851Z,8.30
2018-12-05T15:21:38.139Z,8.20
2018-12-05T15:24:06.535Z,8.20
2018-12-05T15:26:34.865Z,8.30
2018-12-05T15:29:03.217Z,8.30
2018-12-05T15:31:31.508Z,8.30
2018-12-05T15:33:59.837Z,8.30
2018-12-05T15:36:28.290Z,8.30
2018-12-05T15:38:56.556Z,8.20
2018-12-05T15:41:24.939Z,8.20
2018-12-05T15:43:53.221Z,8.20
2018-12-05T15:46:22.720Z,8.10
2018-12-05T15:48:51.280Z,8.10
2018-12-05T15:51:19.627Z,8.10
2018-12-05T15:53:47.835Z,8.10
2018-12-05T15:56:16.145Z,8.10
2018-12-05T15:58:44.384Z,8.10
2018-12-05T16:01:12.614Z,8.10
2018-12-05T16:03:43.353Z,8.10
2018-12-05T16:06:11.463Z,8.10
2018-12-05T16:08:39.742Z,8.10
2018-12-05T16:11:08.083Z,8.10
2018-12-05T16:13:36.423Z,8.20
2018-12-05T16:16:04.816Z,8.20
2018-12-05T16:18:33.486Z,8.10
2018-12-05T16:21:01.800Z,8.10
2018-12-05T16:23:30.111Z,8.20
2018-12-05T16:25:58.432Z,8.10
2018-12-05T16:28:27.000Z,8.10
2018-12-05T16:30:55.443Z,8.10
2018-12-05T16:33:24.071Z,8.10
2018-12-05T16:35:52.363Z,8.10
2018-12-05T16:38:20.665Z,8.10
2018-12-05T16:40:49.101Z,8.10
2018-12-05T16:43:17.319Z,8.10
2018-12-05T16:45:45.575Z,8.00
2018-12-05T16:48:13.889Z,8.00
2018-12-05T16:50:42.239Z,8.10
2018-12-05T16:53:10.543Z,8.10
2018-12-05T16:55:38.768Z,8.10
2018-12-05T16:58:07.138Z,8.10
2018-12-05T17:00:35.443Z,8.10
2018-12-05T17:03:03.896Z,8.10
2018-12-05T17:05:32.114Z,8.00
2018-12-05T17:08:00.379Z,8.00
2018-12-05T17:10:28.599Z,8.00
2018-12-05T17:12:56.863Z,8.00
2018-12-05T17:15:25.486Z,8.00
2018-12-05T17:17:53.818Z,8.00
2018-12-05T17:20:22.143Z,8.00
2018-12-05T17:22:50.368Z,8.00
2018-12-05T17:25:18.625Z,7.90
2018-12-05T17:27:47.052Z,7.90
2018-12-05T17:30:15.795Z,7.90
2018-12-05T17:32:44.001Z,7.90
2018-12-05T17:35:12.263Z,7.90
2018-12-05T17:37:40.716Z,7.90
2018-12-05T17:40:09.235Z,7.90
2018-12-05T17:42:38.083Z,7.90
2018-12-05T17:45:06.747Z,7.90
2018-12-05T17:47:35.126Z,8.00
2018-12-05T17:50:04.224Z,8.00
2018-12-05T17:52:32.691Z,7.90
2018-12-05T17:55:01.142Z,8.00
2018-12-05T17:57:29.347Z,8.00
2018-12-05T17:59:57.951Z,8.00
2018-12-05T18:02:26.317Z,8.00
2018-12-05T18:04:54.628Z,8.00
2018-12-05T18:07:22.909Z,8.00
2018-12-05T18:09:51.360Z,8.00
2018-12-05T18:12:19.584Z,8.00
2018-12-05T18:14:48.096Z,7.90
2018-12-05T18:17:16.421Z,7.90
2018-12-05T18:19:44.739Z,7.80
2018-12-05T18:22:13.133Z,7.80
2018-12-05T18:24:41.353Z,7.80
2018-12-05T18:27:09.959Z,7.70
2018-12-05T18:29:38.238Z,7.60
2018-12-05T18:32:06.585Z,7.60
2018-12-05T18:34:34.774Z,7.60
2018-12-05T18:37:03.043Z,7.50
2018-12-05T18:39:31.447Z,7.50
2018-12-05T18:41:59.697Z,7.50
2018-12-05T18:44:28.171Z,7.50
2018-12-05T18:46:56.703Z,7.60
2018-12-05T18:49:24.953Z,7.60
2018-12-05T18:51:53.189Z,7.60
2018-12-05T18:54:21.437Z,7.60
2018-12-05T18:56:49.651Z,7.70
2018-12-05T18:59:17.909Z,7.70
2018-12-05T19:01:46.100Z,7.70
2018-12-05T19:04:14.361Z,7.70
2018-12-05T19:06:42.568Z,7.70
2018-12-05T19:09:10.777Z,7.70
2018-12-05T19:11:39.099Z,7.80
2018-12-05T19:14:12.810Z,7.80
2018-12-05T19:16:41.064Z,7.70
2018-12-05T19:19:09.368Z,7.70
2018-12-05T19:21:37.603Z,7.70
2018-12-05T19:24:05.820Z,7.70
2018-12-05T19:26:34.331Z,7.70
2018-12-05T19:29:02.583Z,7.60
2018-12-05T19:31:30.863Z,7.70
2018-12-05T19:33:59.119Z,7.70
2018-12-05T19:36:27.336Z,7.70
2018-12-05T19:38:55.761Z,7.70
2018-12-05T19:41:24.058Z,7.60
2018-12-05T19:43:52.346Z,7.60
2018-12-05T19:46:20.587Z,7.60
2018-12-05T19:48:49.109Z,7.60
2018-12-05T19:51:17.758Z,7.60
2018-12-05T19:53:46.072Z,7.60
2018-12-05T19:56:14.419Z,7.50
2018-12-05T19:58:43.627Z,7.60
2018-12-05T20:01:12.333Z,7.60
2018-12-05T20:03:40.731Z,7.50
2018-12-05T20:06:08.966Z,7.50
2018-12-05T20:08:37.299Z,7.50
2018-12-05T20:11:05.847Z,7.50
2018-12-05T20:13:36.420Z,7.50
2018-12-05T20:16:04.792Z,7.60
2018-12-05T20:18:33.135Z,7.60
2018-12-05T20:21:01.351Z,7.50
2018-12-05T20:24:58.843Z,7.60
2018-12-05T20:27:27.072Z,7.60
2018-12-05T20:29:55.413Z,7.60
2018-12-05T20:32:24.029Z,7.60
2018-12-05T20:34:52.489Z,7.50
2018-12-05T20:37:20.835Z,7.50
2018-12-05T20:39:49.124Z,7.50
2018-12-05T20:42:17.480Z,7.40
2018-12-05T20:44:45.700Z,7.30
2018-12-05T20:47:14.962Z,7.30
2018-12-05T20:49:43.629Z,7.30
2018-12-05T20:52:11.876Z,7.30
2018-12-05T20:54:40.617Z,7.30
2018-12-05T20:57:08.923Z,7.30
2018-12-05T20:59:37.142Z,7.30
2018-12-05T21:02:05.402Z,7.30
2018-12-05T21:04:33.655Z,7.30
2018-12-05T21:07:01.898Z,7.30
2018-12-05T21:09:30.219Z,7.30
2018-12-05T21:11:58.961Z,7.40
2018-12-05T21:14:27.210Z,7.40
2018-12-05T21:16:55.791Z,7.30
2018-12-05T21:19:24.405Z,7.40
2018-12-05T21:21:52.619Z,7.30
2018-12-05T21:24:20.897Z,7.30
2018-12-05T21:26:49.109Z,7.30
2018-12-05T21:29:17.343Z,7.30
2018-12-05T21:31:45.656Z,7.30
2018-12-05T21:34:13.877Z,7.30
2018-12-05T21:36:42.089Z,7.40
2018-12-05T21:39:10.635Z,7.40
2018-12-05T21:41:38.983Z,7.40
2018-12-05T21:44:07.219Z,7.40
2018-12-05T21:46:35.549Z,7.30
2018-12-05T21:49:03.931Z,7.30
2018-12-05T21:51:32.177Z,7.20
2018-12-05T21:54:00.976Z,7.20
2018-12-05T21:56:29.220Z,7.20
2018-12-05T21:58:57.560Z,7.10
2018-12-05T22:01:25.951Z,7.10
2018-12-05T22:03:54.180Z,7.10
2018-12-05T22:06:22.480Z,7.20
2018-12-05T22:08:50.857Z,7.20
2018-12-05T22:11:19.029Z,7.20
2018-12-05T22:13:47.390Z,7.20
2018-12-05T22:16:15.620Z,7.20
2018-12-05T22:18:43.850Z,7.10
2018-12-05T22:21:12.155Z,7.10
2018-12-05T22:23:40.447Z,7.10
2018-12-05T22:26:08.664Z,7.20
2018-12-05T22:28:37.334Z,7.20
2018-12-05T22:31:05.856Z,7.20
2018-12-05T22:33:34.238Z,7.20
2018-12-05T22:36:02.547Z,7.20
2018-12-05T22:38:30.792Z,7.20
2018-12-05T22:40:59.116Z,7.20
2018-12-05T22:43:27.390Z,7.10
2018-12-05T22:45:55.859Z,7.10
2018-12-05T22:48:24.099Z,7.20
2018-12-05T22:50:52.337Z,7.20
2018-12-05T22:53:20.579Z,7.20
2018-12-05T22:55:48.829Z,7.10
2018-12-05T22:58:17.065Z,7.10
2018-12-05T23:00:49.945Z,7.10
2018-12-05T23:03:18.360Z,7.00
2018-12-05T23:10:22.106Z,7.00
2018-12-05T23:12:50.454Z,7.00
2018-12-05T23:15:18.689Z,7.00
2018-12-05T23:17:46.928Z,6.90
2018-12-05T23:20:15.231Z,7.00
2018-12-05T23:22:43.456Z,6.90
2018-12-05T23:25:11.693Z,6.90
2018-12-05T23:27:40.195Z,6.90
2018-12-05T23:30:08.716Z,6.90
2018-12-05T23:32:37.203Z,6.90
2018-12-05T23:35:05.651Z,6.90
2018-12-05T23:37:33.961Z,6.90
2018-12-05T23:40:02.328Z,6.90
2018-12-05T23:42:30.628Z,6.90
2018-12-05T23:44:58.874Z,6.90
2018-12-05T23:47:27.132Z,6.90
2018-12-05T23:49:55.577Z,6.90
2018-12-05T23:52:23.937Z,6.80
2018-12-05T23:54:52.207Z,6.80
2018-12-05T23:58:49.883Z,6.80
